Time;durP1;ratioP1;P1;durP2;ratioP2;P2;SDS_P1;SDS_P2;PMS_P1;PMS_P2;Temp;Humidity;BMP_temperature;BMP_pressure;BME280_temperature;BME280_humidity;BME280_pressure;Samples;Min_cycle;Max_cycle;Signal;HPM_P1;HPM_P2
2021/09/05 00:00:18;;;;;;;18.00;10.30;;;11.50;99.90;;;;;;5083144;28;20107;-77
2021/09/05 00:02:44;;;;;;;19.35;10.80;;;11.50;99.90;;;;;;5089316;28;20048;-77
2021/09/05 00:05:12;;;;;;;19.73;10.75;;;11.50;99.90;;;;;;5091776;28;20102;-76
2021/09/05 00:07:38;;;;;;;16.10;11.82;;;11.50;99.90;;;;;;5091704;28;20048;-76
2021/09/05 00:10:08;;;;;;;19.88;13.10;;;11.40;99.90;;;;;;5091066;28;20082;-76
2021/09/05 00:12:35;;;;;;;20.42;12.18;;;11.30;99.90;;;;;;5091022;28;20044;-76
2021/09/05 00:15:01;;;;;;;17.08;11.63;;;11.30;99.90;;;;;;5094582;28;20097;-76
2021/09/05 00:17:28;;;;;;;17.27;11.88;;;11.20;99.90;;;;;;5095087;28;20066;-74
2021/09/05 00:19:55;;;;;;;20.63;11.88;;;11.30;99.90;;;;;;5094751;28;20447;-77
2021/09/05 00:22:21;;;;;;;18.60;11.93;;;11.20;99.90;;;;;;5089033;28;20094;-77
2021/09/05 00:24:48;;;;;;;21.00;12.23;;;11.20;99.90;;;;;;5074836;28;20048;-77
2021/09/05 00:27:16;;;;;;;64.10;30.25;;;11.10;99.90;;;;;;5088056;28;20105;-76
2021/09/05 00:29:43;;;;;;;24.50;15.85;;;11.00;99.90;;;;;;5094116;28;20052;-78
2021/09/05 00:32:09;;;;;;;52.50;28.08;;;10.90;99.90;;;;;;5094855;28;20105;-77
2021/09/05 00:34:36;;;;;;;44.47;24.08;;;10.90;99.90;;;;;;5075529;28;20048;-78
2021/09/05 00:37:03;;;;;;;20.63;13.13;;;11.00;99.90;;;;;;5089264;28;20044;-77
2021/09/05 00:39:30;;;;;;;44.65;24.63;;;11.00;99.90;;;;;;5079304;28;20044;-77
2021/09/05 00:41:56;;;;;;;55.80;29.02;;;10.80;99.90;;;;;;5074567;28;20048;-77
2021/09/05 00:44:24;;;;;;;67.82;35.83;;;10.70;99.90;;;;;;5074659;28;20048;-77
2021/09/05 00:46:51;;;;;;;76.75;39.00;;;10.80;99.90;;;;;;5077940;28;20040;-78
2021/09/05 00:49:18;;;;;;;84.35;41.95;;;10.70;99.90;;;;;;5094485;28;20044;-78
2021/09/05 00:51:45;;;;;;;71.63;35.88;;;10.80;99.90;;;;;;5094346;28;20097;-78
2021/09/05 00:54:14;;;;;;;120.25;60.28;;;10.90;99.90;;;;;;5075010;28;20098;-78
2021/09/05 00:56:43;;;;;;;25.67;18.73;;;10.90;99.90;;;;;;5089092;28;20102;-76
2021/09/05 00:59:13;;;;;;;96.03;48.20;;;10.90;99.90;;;;;;5093131;28;20044;-77
2021/09/05 01:01:41;;;;;;;51.15;27.70;;;10.80;99.90;;;;;;5078177;28;20127;-76
2021/09/05 01:04:08;;;;;;;31.77;18.52;;;10.60;99.90;;;;;;5074501;28;20052;-77
2021/09/05 01:06:35;;;;;;;23.90;15.60;;;10.60;99.90;;;;;;5080170;28;20048;-76
2021/09/05 01:09:03;;;;;;;91.75;49.70;;;10.40;99.90;;;;;;5073780;28;20523;-76
2021/09/05 01:11:32;;;;;;;21.42;13.55;;;10.40;99.90;;;;;;5074940;28;20045;-76
2021/09/05 01:13:59;;;;;;;23.20;13.90;;;10.40;99.90;;;;;;5092163;28;20579;-76
2021/09/05 01:16:27;;;;;;;67.63;35.30;;;10.20;99.90;;;;;;5089234;28;20459;-76
2021/09/05 01:18:55;;;;;;;36.17;21.60;;;10.20;99.90;;;;;;5093362;28;20562;-77
2021/09/05 01:21:22;;;;;;;69.32;38.50;;;10.40;99.90;;;;;;5093971;28;20097;-76
2021/09/05 01:23:48;;;;;;;51.13;28.10;;;10.30;99.90;;;;;;5092162;28;20044;-74
2021/09/05 01:26:15;;;;;;;33.22;19.50;;;10.40;99.90;;;;;;5085535;28;20056;-74
2021/09/05 01:28:45;;;;;;;53.92;27.10;;;10.40;99.90;;;;;;5081756;28;20049;-74
2021/09/05 01:31:12;;;;;;;75.63;39.30;;;10.40;99.90;;;;;;5073673;28;20048;-77
2021/09/05 01:33:38;;;;;;;37.03;22.17;;;10.40;99.90;;;;;;5086856;28;20041;-77
2021/09/05 01:36:05;;;;;;;20.60;13.73;;;10.40;99.90;;;;;;5073722;28;20041;-77
2021/09/05 01:38:32;;;;;;;48.20;26.63;;;10.40;99.90;;;;;;5072881;28;20044;-75
2021/09/05 01:40:59;;;;;;;46.03;26.10;;;10.30;99.90;;;;;;5073342;28;20059;-74
2021/09/05 01:43:26;;;;;;;67.30;33.50;;;10.20;99.90;;;;;;5089315;28;20044;-75
2021/09/05 01:45:54;;;;;;;62.05;34.90;;;10.20;99.90;;;;;;5093296;28;20048;-75
2021/09/05 01:48:21;;;;;;;58.10;29.13;;;10.30;99.90;;;;;;5092440;28;20048;-76
2021/09/05 01:50:47;;;;;;;34.25;19.70;;;10.30;99.90;;;;;;5083819;28;20090;-76
2021/09/05 01:53:14;;;;;;;20.67;13.02;;;10.20;99.90;;;;;;5073336;28;20052;-77
2021/09/05 01:55:41;;;;;;;28.60;15.65;;;10.00;99.90;;;;;;5081612;28;20047;-77
2021/09/05 01:58:07;;;;;;;33.15;18.50;;;9.90;99.90;;;;;;5093499;28;20101;-77
2021/09/05 02:00:34;;;;;;;69.45;37.63;;;9.80;99.90;;;;;;5078421;28;20551;-76
2021/09/05 02:03:02;;;;;;;54.50;32.25;;;9.90;99.90;;;;;;5086058;28;20056;-75
2021/09/05 02:05:29;;;;;;;76.53;39.95;;;10.00;99.90;;;;;;5093120;28;20117;-74
2021/09/05 02:07:55;;;;;;;72.47;38.20;;;10.00;99.90;;;;;;5092668;28;20109;-73
2021/09/05 02:10:22;;;;;;;28.15;17.63;;;10.00;99.90;;;;;;5092418;28;20048;-75
2021/09/05 02:12:49;;;;;;;58.35;33.00;;;10.10;99.90;;;;;;5088448;28;20466;-74
2021/09/05 02:15:15;;;;;;;20.77;13.00;;;10.20;99.90;;;;;;5092846;28;20048;-75
2021/09/05 02:17:42;;;;;;;22.90;12.98;;;10.20;99.90;;;;;;5074253;28;20646;-75
2021/09/05 02:20:11;;;;;;;16.35;12.52;;;10.10;99.90;;;;;;5071649;28;20040;-75
2021/09/05 02:22:40;;;;;;;23.33;13.82;;;10.00;99.90;;;;;;5073957;28;20067;-77
2021/09/05 02:25:08;;;;;;;21.25;13.00;;;10.00;99.90;;;;;;5072837;28;20075;-76
2021/09/05 02:27:34;;;;;;;18.58;13.45;;;10.00;99.90;;;;;;5079929;28;20101;-75
2021/09/05 02:30:01;;;;;;;19.92;12.80;;;10.00;99.90;;;;;;5091775;28;20071;-74
2021/09/05 02:32:28;;;;;;;24.10;14.10;;;10.10;99.90;;;;;;5092781;28;20040;-75
2021/09/05 02:34:54;;;;;;;24.00;14.40;;;10.20;99.90;;;;;;5092585;28;20048;-76
2021/09/05 02:37:22;;;;;;;25.08;14.35;;;10.20;99.90;;;;;;5092326;28;20044;-75
2021/09/05 02:39:49;;;;;;;25.40;14.07;;;10.30;99.90;;;;;;5092283;28;20036;-75
2021/09/05 02:42:16;;;;;;;26.17;14.68;;;10.40;99.90;;;;;;5087392;28;20056;-78
2021/09/05 02:44:42;;;;;;;25.02;14.82;;;10.40;99.90;;;;;;5072701;28;20496;-75
2021/09/05 02:47:09;;;;;;;27.48;14.88;;;10.50;99.90;;;;;;5078438;28;20070;-74
2021/09/05 02:49:36;;;;;;;30.50;15.80;;;10.70;99.90;;;;;;5090040;28;20044;-75
2021/09/05 02:52:03;;;;;;;27.15;15.27;;;10.80;99.90;;;;;;5092228;28;20044;-75
2021/09/05 02:54:30;;;;;;;30.00;15.55;;;11.00;99.90;;;;;;5092433;28;20136;-75
2021/09/05 02:56:57;;;;;;;31.35;15.00;;;11.00;99.90;;;;;;5092035;28;20109;-77
2021/09/05 02:59:24;;;;;;;32.55;16.00;;;11.00;99.90;;;;;;5091610;28;20488;-74
2021/09/05 03:01:50;;;;;;;28.42;15.60;;;11.10;99.90;;;;;;5090117;28;20048;-76
2021/09/05 03:04:17;;;;;;;28.77;14.38;;;11.10;99.90;;;;;;5081715;28;20048;-76
2021/09/05 03:06:44;;;;;;;24.25;13.43;;;11.10;99.90;;;;;;5073296;28;20060;-76
2021/09/05 03:09:10;;;;;;;27.98;14.02;;;11.10;99.90;;;;;;5085822;28;20139;-76
2021/09/05 03:11:38;;;;;;;30.23;15.50;;;11.20;99.90;;;;;;5091542;28;20086;-76
2021/09/05 03:14:05;;;;;;;30.02;14.85;;;11.30;99.90;;;;;;5072070;28;20049;-76
2021/09/05 03:16:31;;;;;;;23.70;14.52;;;11.40;99.90;;;;;;5072751;28;20045;-76
2021/09/05 03:18:58;;;;;;;23.55;14.73;;;11.50;99.90;;;;;;5071960;28;20097;-76
2021/09/05 03:21:25;;;;;;;25.17;15.02;;;11.60;99.90;;;;;;5080472;28;20074;-75
2021/09/05 03:23:51;;;;;;;22.75;14.02;;;11.60;99.90;;;;;;5073149;28;20094;-75
2021/09/05 03:26:18;;;;;;;21.92;13.52;;;11.60;99.90;;;;;;5071642;28;20493;-75
2021/09/05 03:28:46;;;;;;;19.75;12.80;;;11.70;99.90;;;;;;5071076;28;20049;-76
2021/09/05 03:31:12;;;;;;;22.70;12.65;;;11.70;99.90;;;;;;5073161;28;20053;-75
2021/09/05 03:33:39;;;;;;;23.70;14.50;;;11.60;99.90;;;;;;5092175;28;20117;-75
2021/09/05 03:36:06;;;;;;;26.92;13.98;;;11.70;99.90;;;;;;5091052;28;20044;-75
2021/09/05 03:38:33;;;;;;;23.08;13.25;;;11.70;99.90;;;;;;5089470;28;20484;-76
2021/09/05 03:40:59;;;;;;;23.52;12.63;;;11.70;99.90;;;;;;5091736;28;20075;-75
2021/09/05 03:43:26;;;;;;;22.80;12.68;;;11.70;99.90;;;;;;5090988;28;20084;-75
2021/09/05 03:45:54;;;;;;;21.92;12.73;;;11.70;99.90;;;;;;5091191;28;20105;-75
2021/09/05 03:48:21;;;;;;;22.90;12.93;;;11.70;99.90;;;;;;5091974;28;20090;-76
2021/09/05 03:50:47;;;;;;;21.17;10.45;;;11.60;99.90;;;;;;5094140;28;20048;-76
2021/09/05 03:53:14;;;;;;;19.48;10.68;;;11.80;99.90;;;;;;5095499;28;20044;-76
2021/09/05 03:55:40;;;;;;;22.10;11.93;;;11.70;99.90;;;;;;5096089;28;20048;-77
2021/09/05 03:58:07;;;;;;;19.98;12.25;;;11.60;99.90;;;;;;5095216;28;20047;-76
2021/09/05 04:00:34;;;;;;;16.73;11.73;;;11.60;99.90;;;;;;5091694;28;20045;-76
2021/09/05 04:03:02;;;;;;;27.15;12.98;;;11.60;99.90;;;;;;5075219;28;20037;-75
2021/09/05 04:05:30;;;;;;;17.73;11.65;;;11.60;99.90;;;;;;5088813;28;20040;-74
2021/09/05 04:08:14;;;;;;;17.95;10.98;;;11.60;99.90;;;;;;5095071;28;20489;-75
2021/09/05 04:10:41;;;;;;;20.48;11.15;;;11.50;99.90;;;;;;5094371;28;20048;-75
2021/09/05 04:13:09;;;;;;;18.75;11.00;;;11.50;99.90;;;;;;5094885;28;20055;-75
2021/09/05 04:15:36;;;;;;;17.67;11.30;;;11.50;99.90;;;;;;5095203;28;20040;-75
2021/09/05 04:18:04;;;;;;;18.45;11.13;;;11.50;99.90;;;;;;5095387;28;20097;-74
2021/09/05 04:20:30;;;;;;;14.95;10.68;;;11.50;99.90;;;;;;5095085;28;20454;-75
2021/09/05 04:22:57;;;;;;;17.17;10.38;;;11.50;99.90;;;;;;5083652;28;20389;-76
2021/09/05 04:25:26;;;;;;;15.95;8.90;;;11.50;99.90;;;;;;5074878;28;20040;-76
2021/09/05 04:27:52;;;;;;;17.60;10.05;;;11.50;99.90;;;;;;5086064;28;20040;-76
2021/09/05 04:30:19;;;;;;;16.58;10.10;;;11.40;99.90;;;;;;5094196;28;20047;-76
2021/09/05 04:32:46;;;;;;;23.73;12.55;;;11.40;99.90;;;;;;5084076;28;20100;-76
2021/09/05 04:35:13;;;;;;;16.48;8.77;;;11.40;99.90;;;;;;5086033;28;20048;-76
2021/09/05 04:37:40;;;;;;;17.45;9.05;;;11.40;99.90;;;;;;5094877;28;20097;-75
2021/09/05 04:40:08;;;;;;;15.30;9.55;;;11.50;99.90;;;;;;5094190;28;20044;-77
2021/09/05 04:42:36;;;;;;;16.05;8.98;;;11.50;99.90;;;;;;5092224;28;20049;-77
2021/09/05 04:45:03;;;;;;;13.10;8.32;;;11.60;99.90;;;;;;5086653;28;20086;-77
2021/09/05 04:47:29;;;;;;;15.60;8.68;;;11.50;99.90;;;;;;5091430;28;20040;-77
2021/09/05 04:49:56;;;;;;;15.52;8.48;;;11.50;99.90;;;;;;5094308;28;20052;-77
2021/09/05 04:52:24;;;;;;;19.45;10.25;;;11.60;99.90;;;;;;5094874;28;20052;-78
2021/09/05 04:54:51;;;;;;;17.52;8.43;;;11.60;99.90;;;;;;5094005;28;20048;-75
2021/09/05 04:57:17;;;;;;;14.43;8.77;;;11.70;99.90;;;;;;5087680;28;20097;-76
2021/09/05 04:59:44;;;;;;;13.70;8.38;;;11.70;99.90;;;;;;5080523;28;20094;-76
2021/09/05 05:02:10;;;;;;;20.63;9.65;;;11.80;99.90;;;;;;5078180;28;20052;-76
2021/09/05 05:04:37;;;;;;;13.60;8.80;;;11.90;99.90;;;;;;5074582;28;20049;-76
2021/09/05 05:07:04;;;;;;;16.67;8.68;;;12.00;99.90;;;;;;5080910;28;20053;-74
2021/09/05 05:09:32;;;;;;;18.85;8.88;;;12.00;99.90;;;;;;5078352;28;20052;-74
2021/09/05 05:11:59;;;;;;;15.93;9.32;;;12.00;99.90;;;;;;5093784;28;20036;-74
2021/09/05 05:14:25;;;;;;;12.13;8.05;;;12.00;99.90;;;;;;5093175;28;20451;-75
2021/09/05 05:16:52;;;;;;;12.90;7.95;;;12.10;99.90;;;;;;5079212;28;20045;-75
2021/09/05 05:19:18;;;;;;;12.52;8.18;;;12.10;99.90;;;;;;5089022;28;20044;-75
2021/09/05 05:21:45;;;;;;;12.88;9.00;;;12.10;99.90;;;;;;5094343;28;20047;-74
2021/09/05 05:24:12;;;;;;;14.05;7.80;;;12.10;99.90;;;;;;5093215;28;20101;-74
2021/09/05 05:26:39;;;;;;;9.88;6.90;;;12.10;99.90;;;;;;5094007;28;20066;-74
2021/09/05 05:29:06;;;;;;;11.27;7.40;;;12.10;99.90;;;;;;5093254;28;20048;-75
2021/09/05 05:31:33;;;;;;;9.70;6.68;;;12.20;99.90;;;;;;5093455;28;20055;-76
2021/09/05 05:33:59;;;;;;;9.50;7.32;;;12.20;99.90;;;;;;5088807;28;20090;-75
2021/09/05 05:36:26;;;;;;;10.82;7.10;;;12.30;99.90;;;;;;5093066;28;20052;-75
2021/09/05 05:38:53;;;;;;;11.73;6.60;;;12.30;99.90;;;;;;5094264;28;20044;-76
2021/09/05 05:41:20;;;;;;;8.35;5.25;;;12.30;99.90;;;;;;5093751;28;20044;-76
2021/09/05 05:43:48;;;;;;;10.52;5.65;;;12.40;99.90;;;;;;5093533;28;20483;-76
2021/09/05 05:46:14;;;;;;;8.43;5.43;;;12.40;99.90;;;;;;5093552;28;20051;-76
2021/09/05 05:48:41;;;;;;;7.53;4.75;;;12.40;99.90;;;;;;5092392;28;20093;-77
2021/09/05 05:51:08;;;;;;;7.43;4.93;;;12.40;99.90;;;;;;5093014;28;20048;-78
2021/09/05 05:53:35;;;;;;;8.15;5.40;;;12.50;99.90;;;;;;5093565;28;20052;-76
2021/09/05 05:56:01;;;;;;;6.43;4.65;;;12.40;99.90;;;;;;5092326;28;20121;-76
2021/09/05 05:58:28;;;;;;;7.15;5.03;;;12.50;99.90;;;;;;5092533;28;20070;-75
2021/09/05 06:00:56;;;;;;;6.93;4.63;;;12.60;99.90;;;;;;5072823;28;20489;-75
2021/09/05 06:03:23;;;;;;;7.32;4.20;;;12.70;99.90;;;;;;5073340;28;20448;-73
2021/09/05 06:05:50;;;;;;;7.05;4.90;;;12.90;99.90;;;;;;5085276;28;20052;-74
2021/09/05 06:08:16;;;;;;;6.72;4.28;;;13.00;99.90;;;;;;5093002;28;20044;-73
2021/09/05 06:10:43;;;;;;;4.97;4.47;;;13.20;99.90;;;;;;5089982;28;20488;-74
2021/09/05 06:13:10;;;;;;;4.63;3.53;;;13.30;99.90;;;;;;5073122;28;20485;-74
2021/09/05 06:15:36;;;;;;;7.40;3.90;;;13.60;99.90;;;;;;5091480;28;20055;-74
2021/09/05 06:18:05;;;;;;;7.60;4.38;;;13.60;99.90;;;;;;5093221;28;20097;-75
2021/09/05 06:20:31;;;;;;;6.25;3.53;;;13.80;99.90;;;;;;5091909;28;20142;-75
2021/09/05 06:22:58;;;;;;;8.05;4.68;;;13.90;99.90;;;;;;5092956;28;20094;-75
2021/09/05 06:25:25;;;;;;;6.25;3.50;;;14.10;99.90;;;;;;5073929;28;20044;-75
2021/09/05 06:27:51;;;;;;;6.03;3.65;;;14.40;99.90;;;;;;5072303;28;20493;-75
2021/09/05 06:30:18;;;;;;;7.22;4.70;;;14.70;99.90;;;;;;5071677;28;20106;-75
2021/09/05 06:32:44;;;;;;;6.47;3.67;;;14.90;99.90;;;;;;5074702;28;20110;-77
2021/09/05 06:35:12;;;;;;;5.43;4.07;;;15.10;99.90;;;;;;5072517;28;20555;-74
2021/09/05 06:37:39;;;;;;;4.72;3.25;;;15.20;99.90;;;;;;5082335;28;20389;-73
2021/09/05 06:40:07;;;;;;;6.25;3.72;;;15.30;99.90;;;;;;5084020;28;20440;-75
2021/09/05 06:42:34;;;;;;;6.10;4.28;;;15.30;99.90;;;;;;5072258;28;20048;-76
2021/09/05 06:45:00;;;;;;;4.35;3.63;;;15.40;99.90;;;;;;5074056;28;20447;-75
2021/09/05 06:47:27;;;;;;;7.35;3.72;;;15.40;99.90;;;;;;5092831;28;20102;-77
2021/09/05 06:49:54;;;;;;;7.18;4.13;;;15.30;99.90;;;;;;5091981;28;20093;-76
2021/09/05 06:52:22;;;;;;;6.32;3.83;;;15.30;99.90;;;;;;5092457;28;20048;-76
2021/09/05 06:54:48;;;;;;;6.18;3.72;;;15.30;99.90;;;;;;5092009;28;20070;-76
2021/09/05 06:57:15;;;;;;;7.20;3.40;;;15.20;99.90;;;;;;5081554;28;20048;-77
2021/09/05 06:59:41;;;;;;;5.00;3.40;;;15.00;99.90;;;;;;5085215;28;20073;-77
2021/09/05 07:02:08;;;;;;;4.68;3.42;;;15.30;99.90;;;;;;5091772;28;20052;-76
2021/09/05 07:04:36;;;;;;;7.47;3.72;;;15.70;99.90;;;;;;5092465;28;20181;-76
2021/09/05 07:07:03;;;;;;;3.88;3.15;;;15.90;99.90;;;;;;5092180;28;20462;-76
2021/09/05 07:09:31;;;;;;;5.13;3.60;;;16.00;99.90;;;;;;5091521;28;20110;-76
2021/09/05 07:11:58;;;;;;;6.63;3.47;;;15.90;99.90;;;;;;5082105;28;20040;-75
2021/09/05 07:14:24;;;;;;;6.95;3.38;;;16.00;99.90;;;;;;5092329;28;20488;-76
2021/09/05 07:16:51;;;;;;;5.03;3.08;;;16.30;99.90;;;;;;5092184;28;20074;-76
2021/09/05 07:19:18;;;;;;;4.28;3.58;;;16.40;99.90;;;;;;5090979;28;20506;-75
2021/09/05 07:21:44;;;;;;;4.03;3.53;;;16.70;99.90;;;;;;5071481;28;20052;-75
2021/09/05 07:24:11;;;;;;;6.07;3.67;;;16.80;99.90;;;;;;5071932;28;20485;-75
2021/09/05 07:26:41;;;;;;;4.90;3.08;;;16.90;99.90;;;;;;5075330;28;20044;-75
2021/09/05 07:29:07;;;;;;;5.38;3.60;;;17.10;99.90;;;;;;5082089;28;20500;-75
2021/09/05 07:31:34;;;;;;;5.53;4.03;;;17.30;99.90;;;;;;5091727;28;20089;-77
2021/09/05 07:34:01;;;;;;;4.53;3.78;;;17.40;99.90;;;;;;5092240;28;20085;-76
2021/09/05 07:36:27;;;;;;;6.65;4.20;;;17.60;99.90;;;;;;5089788;28;20513;-76
2021/09/05 07:38:54;;;;;;;5.63;4.57;;;17.60;99.90;;;;;;5090332;28;20044;-75
2021/09/05 07:41:21;;;;;;;16.35;9.77;;;17.50;99.90;;;;;;5072194;28;20081;-76
2021/09/05 07:43:49;;;;;;;7.93;4.85;;;17.50;99.90;;;;;;5090698;28;20508;-75
2021/09/05 07:46:15;;;;;;;5.90;3.90;;;17.40;99.90;;;;;;5090483;28;20047;-75
2021/09/05 07:48:42;;;;;;;6.03;4.07;;;17.50;99.90;;;;;;5090796;28;20408;-75
2021/09/05 07:51:09;;;;;;;6.45;4.20;;;17.60;99.90;;;;;;5083035;28;20045;-74
2021/09/05 07:53:35;;;;;;;6.03;4.18;;;17.50;99.90;;;;;;5071355;28;20044;-74
2021/09/05 07:56:02;;;;;;;8.38;5.20;;;17.70;99.90;;;;;;5071373;28;20052;-74
2021/09/05 07:58:28;;;;;;;7.78;4.55;;;17.70;99.90;;;;;;5091053;28;20044;-76
2021/09/05 08:00:57;;;;;;;6.10;4.70;;;17.20;99.90;;;;;;5083118;28;20045;-75
2021/09/05 08:03:23;;;;;;;7.57;4.13;;;17.50;99.90;;;;;;5071059;28;20052;-75
2021/09/05 08:05:50;;;;;;;6.47;4.60;;;17.60;99.90;;;;;;5072177;28;20443;-77
2021/09/05 08:08:17;;;;;;;6.82;4.50;;;18.10;99.90;;;;;;5072357;28;20052;-78
2021/09/05 08:10:44;;;;;;;6.32;4.13;;;18.50;99.90;;;;;;5085649;28;20431;-78
2021/09/05 08:13:10;;;;;;;5.85;3.67;;;18.80;99.90;;;;;;5093131;28;20105;-78
2021/09/05 08:15:37;;;;;;;5.32;4.00;;;19.00;99.90;;;;;;5093585;28;20052;-78
2021/09/05 08:18:05;;;;;;;4.57;3.70;;;19.60;99.90;;;;;;5093377;28;20550;-75
2021/09/05 08:20:32;;;;;;;8.00;5.32;;;20.40;99.90;;;;;;5080284;28;20040;-77
2021/09/05 08:22:58;;;;;;;6.93;4.30;;;20.30;99.90;;;;;;5086441;28;20048;-77
2021/09/05 08:25:25;;;;;;;6.43;4.18;;;20.20;99.90;;;;;;5079156;28;20477;-70
2021/09/05 08:27:52;;;;;;;7.28;3.92;;;20.70;99.90;;;;;;5083762;28;20098;-73
2021/09/05 08:30:18;;;;;;;6.28;3.80;;;21.20;99.90;;;;;;5090257;28;20044;-72
2021/09/05 08:32:45;;;;;;;9.27;5.15;;;21.30;99.90;;;;;;5091123;28;20040;-74
2021/09/05 08:35:13;;;;;;;6.78;4.38;;;21.50;99.90;;;;;;5093718;28;20043;-75
2021/09/05 08:37:40;;;;;;;7.65;4.38;;;21.70;99.90;;;;;;5094735;28;20488;-74
2021/09/05 08:40:08;;;;;;;8.85;4.28;;;21.40;99.90;;;;;;5094343;28;20072;-78
2021/09/05 08:42:35;;;;;;;6.03;3.75;;;21.50;99.90;;;;;;5095507;28;20094;-75
2021/09/05 08:45:04;;;;;;;9.73;4.75;;;21.00;99.50;;;;;;5094153;28;20492;-75
2021/09/05 08:47:34;;;;;;;7.00;4.22;;;20.90;99.90;;;;;;5085336;28;20102;-76
2021/09/05 08:50:01;;;;;;;5.88;4.40;;;20.70;99.90;;;;;;5091310;28;20492;-76
2021/09/05 08:52:29;;;;;;;5.82;4.60;;;20.50;99.90;;;;;;5094852;28;20050;-72
2021/09/05 08:54:56;;;;;;;6.55;5.13;;;20.80;99.90;;;;;;5094715;28;20544;-73
2021/09/05 08:57:23;;;;;;;9.30;4.93;;;21.10;99.90;;;;;;5094071;28;20555;-76
2021/09/05 08:59:50;;;;;;;6.70;5.15;;;21.10;99.90;;;;;;5093769;28;20059;-77
2021/09/05 09:02:16;;;;;;;6.45;4.50;;;21.60;99.50;;;;;;5093714;28;20090;-75
2021/09/05 09:04:44;;;;;;;6.25;4.35;;;22.30;98.50;;;;;;5094362;28;20056;-71
2021/09/05 09:07:12;;;;;;;5.53;4.25;;;22.70;97.40;;;;;;5094207;28;20051;-72
2021/09/05 09:09:55;;;;;;;9.15;5.07;;;23.80;95.30;;;;;;5093683;28;20047;-72
2021/09/05 09:12:36;;;;;;;7.40;5.35;;;23.80;93.50;;;;;;5094278;28;20058;-71
2021/09/05 09:15:04;;;;;;;8.23;5.47;;;23.40;91.50;;;;;;5093781;28;20164;-71
2021/09/05 09:17:38;;;;;;;6.72;5.28;;;22.50;93.80;;;;;;5094387;28;20040;-74
2021/09/05 09:20:05;;;;;;;7.70;4.75;;;22.40;94.30;;;;;;5079670;28;20045;-77
2021/09/05 09:22:32;;;;;;;7.05;5.10;;;23.00;93.10;;;;;;5087038;28;20059;-74
2021/09/05 09:25:00;;;;;;;6.88;5.03;;;23.30;92.40;;;;;;5093049;28;20048;-74
2021/09/05 09:27:27;;;;;;;12.07;5.47;;;23.90;91.30;;;;;;5094140;28;20047;-75
2021/09/05 09:29:56;;;;;;;5.88;4.68;;;24.10;90.30;;;;;;5092937;28;20455;-75
2021/09/05 09:32:23;;;;;;;7.22;5.63;;;24.00;89.90;;;;;;5093781;28;20047;-74
2021/09/05 09:34:51;;;;;;;7.13;5.15;;;24.50;88.90;;;;;;5093140;28;20516;-76
2021/09/05 09:37:20;;;;;;;9.13;4.97;;;24.40;85.30;;;;;;5094075;28;20040;-76
2021/09/05 09:39:48;;;;;;;7.25;5.13;;;24.30;87.40;;;;;;5093057;28;20048;-74
2021/09/05 09:42:33;;;;;;;7.78;4.30;;;24.30;87.50;;;;;;5091495;28;20048;-73
2021/09/05 09:45:00;;;;;;;6.88;4.85;;;23.70;89.00;;;;;;5073504;28;20044;-72
2021/09/05 09:47:38;;;;;;;8.40;4.40;;;23.60;90.10;;;;;;5077409;28;20074;-73
2021/09/05 09:50:05;;;;;;;7.57;4.53;;;24.70;88.90;;;;;;5091982;28;20040;-72
2021/09/05 09:52:32;;;;;;;7.03;5.35;;;25.10;85.50;;;;;;5091140;28;20047;-73
2021/09/05 09:54:59;;;;;;;7.30;4.65;;;26.20;80.90;;;;;;5093338;28;20048;-73
2021/09/05 09:57:26;;;;;;;8.35;4.45;;;27.10;80.00;;;;;;5092939;28;20492;-73
2021/09/05 09:59:54;;;;;;;5.78;4.90;;;27.30;75.60;;;;;;5092085;28;20458;-73
2021/09/05 10:02:24;;;;;;;7.78;4.50;;;27.50;73.50;;;;;;5093084;28;20048;-74
2021/09/05 10:04:52;;;;;;;7.57;5.07;;;27.90;72.10;;;;;;5092806;28;20097;-75
2021/09/05 10:07:21;;;;;;;7.35;4.35;;;27.90;71.30;;;;;;5092830;28;20044;-73
2021/09/05 10:09:48;;;;;;;8.70;4.88;;;28.70;69.30;;;;;;5091250;28;20721;-74
2021/09/05 10:12:16;;;;;;;6.18;3.83;;;29.00;68.20;;;;;;5092979;28;20048;-73
2021/09/05 10:14:45;;;;;;;6.68;4.35;;;28.90;67.70;;;;;;5092793;28;20044;-73
2021/09/05 10:17:13;;;;;;;7.53;4.82;;;28.10;67.70;;;;;;5092706;28;20097;-74
2021/09/05 10:19:41;;;;;;;6.70;4.75;;;26.80;69.70;;;;;;5092090;28;20369;-76
2021/09/05 10:22:08;;;;;;;8.18;5.55;;;26.00;72.10;;;;;;5092312;28;20052;-73
2021/09/05 10:24:45;;;;;;;7.63;5.22;;;26.40;73.20;;;;;;5090756;28;20109;-73
2021/09/05 10:27:11;;;;;;;9.32;5.07;;;26.40;74.10;;;;;;5092668;28;20071;-72
2021/09/05 10:29:38;;;;;;;5.93;4.20;;;26.00;73.10;;;;;;5091896;28;20052;-72
2021/09/05 10:32:05;;;;;;;8.52;5.70;;;26.90;73.10;;;;;;5091127;28;20040;-73
2021/09/05 10:34:35;;;;;;;6.75;4.80;;;28.30;69.50;;;;;;5092129;28;20044;-73
2021/09/05 10:37:07;;;;;;;9.73;5.88;;;29.20;66.10;;;;;;5091440;28;20047;-74
2021/09/05 10:39:34;;;;;;;6.90;5.35;;;29.30;65.00;;;;;;5089907;28;20040;-74
2021/09/05 10:42:00;;;;;;;9.73;6.68;;;29.10;64.50;;;;;;5090427;28;20506;-74
2021/09/05 10:44:27;;;;;;;12.52;8.38;;;28.90;65.20;;;;;;5090767;28;20492;-74
2021/09/05 10:46:55;;;;;;;7.28;5.38;;;28.40;65.70;;;;;;5091046;28;20408;-74
2021/09/05 10:49:39;;;;;;;12.63;8.55;;;27.80;64.80;;;;;;5089974;28;20226;-74
2021/09/05 10:52:06;;;;;;;7.68;6.05;;;27.10;69.10;;;;;;5091097;28;20044;-75
2021/09/05 10:54:33;;;;;;;7.57;5.47;;;26.50;70.80;;;;;;5090877;28;20102;-72
2021/09/05 10:57:00;;;;;;;6.63;5.45;;;26.80;69.70;;;;;;5089640;28;20101;-72
2021/09/05 10:59:35;;;;;;;10.45;6.13;;;26.80;68.10;;;;;;5085726;28;20056;-72
2021/09/05 11:02:04;;;;;;;8.23;6.00;;;27.10;68.50;;;;;;5091050;28;20037;-73
2021/09/05 11:04:42;;;;;;;5.15;4.57;;;26.50;68.20;;;;;;5090446;28;20109;-73
2021/09/05 11:07:30;;;;;;;10.05;7.18;;;26.70;67.50;;;;;;5089178;28;20071;-74
2021/09/05 11:09:57;;;;;;;10.02;6.57;;;26.90;69.50;;;;;;5081926;28;20389;-74
2021/09/05 11:12:42;;;;;;;11.70;8.82;;;27.70;67.80;;;;;;5091594;28;20052;-74
2021/09/05 11:15:19;;;;;;;10.43;6.60;;;27.90;66.20;;;;;;5091385;28;20070;-73
2021/09/05 11:17:54;;;;;;;8.90;6.00;;;28.40;65.90;;;;;;5103510;28;20044;-73
2021/09/05 11:20:22;;;;;;;11.57;6.97;;;27.70;65.50;;;;;;5093289;28;20458;-73
2021/09/05 11:22:50;;;;;;;8.02;5.43;;;27.00;67.20;;;;;;5090553;28;20048;-74
2021/09/05 11:25:23;;;;;;;10.40;6.13;;;26.50;68.00;;;;;;5091203;28;20152;-73
2021/09/05 11:27:54;;;;;;;7.70;6.60;;;26.80;67.40;;;;;;5090923;28;20050;-74
2021/09/05 11:30:22;;;;;;;8.73;6.07;;;27.70;65.90;;;;;;5090313;28;20044;-73
2021/09/05 11:32:49;;;;;;;9.13;6.45;;;28.10;65.40;;;;;;5089736;28;20048;-73
2021/09/05 11:35:16;;;;;;;10.45;7.70;;;28.90;64.50;;;;;;5079956;28;20047;-73
2021/09/05 11:37:46;;;;;;;7.70;6.35;;;29.70;62.20;;;;;;5091655;28;20077;-74
2021/09/05 11:40:15;;;;;;;8.40;5.60;;;30.30;60.20;;;;;;5090896;28;20098;-73
2021/09/05 11:42:46;;;;;;;8.63;7.22;;;30.60;59.70;;;;;;5091501;28;20188;-74
2021/09/05 11:45:14;;;;;;;8.60;7.13;;;31.00;59.30;;;;;;5091558;28;20044;-73
2021/09/05 11:47:42;;;;;;;11.10;7.85;;;30.90;57.90;;;;;;5081336;28;20123;-72
2021/09/05 11:50:11;;;;;;;9.38;7.00;;;30.50;59.30;;;;;;5070570;28;20068;-72
2021/09/05 11:52:40;;;;;;;11.15;8.60;;;31.00;58.40;;;;;;5077866;28;20047;-73
2021/09/05 11:55:11;;;;;;;8.80;6.90;;;31.60;58.00;;;;;;5091473;28;20048;-73
2021/09/05 11:57:38;;;;;;;;;;;30.50;57.40;;;;;;5091962;28;20067;-72
2021/09/05 12:00:08;;;;;;;6.55;5.82;;;29.70;59.20;;;;;;5090838;28;19964;-73
2021/09/05 12:02:36;;;;;;;9.70;6.57;;;28.90;59.10;;;;;;5091284;28;20077;-73
2021/09/05 12:05:05;;;;;;;7.18;5.68;;;28.70;61.30;;;;;;5091172;28;20047;-72
2021/09/05 12:07:38;;;;;;;6.47;5.30;;;29.30;60.00;;;;;;5090377;28;20051;-74
2021/09/05 12:10:12;;;;;;;7.53;5.68;;;29.50;59.20;;;;;;5092127;28;20060;-72
2021/09/05 12:12:39;;;;;;;7.75;6.10;;;29.50;58.60;;;;;;5095211;28;20040;-73
2021/09/05 12:15:14;;;;;;;8.13;5.78;;;29.00;60.60;;;;;;5089105;28;20040;-74
2021/09/05 12:17:44;;;;;;;8.55;6.65;;;28.60;60.00;;;;;;5082146;28;20113;-75
2021/09/05 12:20:11;;;;;;;9.52;7.03;;;29.60;61.20;;;;;;5093788;28;20044;-72
2021/09/05 12:22:46;;;;;;;9.05;6.43;;;30.40;58.60;;;;;;5094861;28;20496;-74
2021/09/05 12:25:17;;;;;;;10.38;6.10;;;29.70;58.80;;;;;;5095033;28;20044;-73
2021/09/05 12:27:58;;;;;;;8.20;5.75;;;29.20;58.90;;;;;;5095148;28;20090;-72
2021/09/05 12:30:27;;;;;;;7.95;6.03;;;29.20;59.40;;;;;;5094398;28;20036;-73
2021/09/05 12:33:08;;;;;;;8.18;5.45;;;29.20;59.50;;;;;;5094759;28;20040;-72
2021/09/05 12:35:35;;;;;;;8.50;5.72;;;28.50;58.80;;;;;;5094887;28;20090;-73
2021/09/05 12:38:10;;;;;;;11.27;6.80;;;29.00;61.10;;;;;;5094912;28;20458;-73
2021/09/05 12:40:43;;;;;;;8.35;6.28;;;28.70;60.00;;;;;;5094575;28;20041;-73